Capitol Logistics 402


KLAX
Los Angeles International Airport
Los Angeles, California, US
KSEA
Seattle-Tacoma International Airport
Seattle, Washington, US

Activity Log

Date Flight Route Aircraft Duration
01/14/2020 CPX402 TRTON2 SCTRR SNS RBL BTG HAWKZ7 B744 2h 58m
10/27/2019 CPX402 TRTON2 SCTRR SNS RBL BTG HAWKZ7 B744 2h 14m
05/17/2019 CPX402 TRTON2 SCTRR SNS RBL BTG HAWKZ7 B744 2h 20m
04/15/2019 CPX402 TRTON2 SCTRR SNS RBL BTG HAWKZ7 B744 2h 18m
01/22/2019 CPX402 SUMMR1 SCTRR SNS RBL LMT HAWKZ7 B752 2h 33m

Route Details

Aircraft Information
Primary: Boeing 747-400BCF
Backup: Boeing 777-200LRF
Route Data
Distance: 831nm
Sched. Duration: 2h 08m
Avg. Duration: 2h 29m (+21m)
Times Flown: 5
Recm'd Route: TRTON2 SCTRR SNS RBL BTG HAWKZ7
Planned Altitude: 36,000ft
Origin Wx: KLAX 270153Z 26009KT 10SM SCT250 21/M04 A3017 RMK AO2 SLP216 T02061039
Dest. Wx: KSEA 270153Z 19003KT 10SM FEW032 SCT090 SCT250 09/04 A3051 RMK AO2 SLP339 T00940039
Notes:

Financial History
Total Freight: 587,252lbs
Average Load: 117,450lbs/flt
Fuel Used: 210,147lbs
Avg. Fuel Used: 42,029lbs/flt
Fuel Expense: $248,901
Avg. Fuel Expense: $49,780
Avg. Fuel Cost: $1.18/lbs
Total Gross Income: $762,191
Pilot Pay: $585
Total Expenses: $82,577
Total Revenue: $428,588
Average Revenue: $152,438.22